Highbluff, Alabama
Current Conditions -  °F | °C
As of 11:58 AM on Thursday 29 Jan 2015 (Local Time) from KOZR Reporting Station
Clear Clear  
Wind Chill: 61°   Ceiling: Unl
Heat Index: 61°   Visibility: 10mi
Dew Point: 41°   Wind: 8mph
Humidity: 48%   Direction: 170°S
Pressure: 30.27"   Gusts: NA
Location:  31.0743°N, 85.7353°W
Report Text: KOZR 291758Z AUTO 17007KT 10SM CLR 16/05 A3027 RMK AO2 SLP253 T01630051 10164 20011 58017
Loading
Personal Weather Stations






























Interactive Weather Map New forecast layout! Learn more

10-Day Weather Forecast

Advertisements
Track Severe Weather on mobile